Time;durP1;ratioP1;P1;durP2;ratioP2;P2;SDS_P1;SDS_P2;PMS_P1;PMS_P2;Temp;Humidity;BMP_temperature;BMP_pressure;BME280_temperature;BME280_humidity;BME280_pressure;Samples;Min_cycle;Max_cycle;Signal;HPM_P1;HPM_P2
2023/04/02 00:01:45;;;;;;;0.65;0.65;;;;;;;9.30;73.40;97507.19;7402489;19;19918;-81
2023/04/02 00:04:25;;;;;;;0.90;0.77;;;;;;;9.28;73.49;97507.34;7407709;19;20491;-81
2023/04/02 00:06:55;;;;;;;1.02;0.80;;;;;;;9.32;73.31;97510.44;7407972;19;19927;-81
2023/04/02 00:09:27;;;;;;;0.90;0.85;;;;;;;9.34;73.48;97516.41;7419719;19;20357;-80
2023/04/02 00:11:54;;;;;;;0.65;0.65;;;;;;;9.23;73.37;97512.28;7415328;19;19914;-81
2023/04/02 00:14:24;;;;;;;0.80;0.80;;;;;;;9.32;73.44;97513.09;7414000;19;19925;-80
2023/04/02 00:16:56;;;;;;;0.73;0.73;;;;;;;9.41;73.31;97517.38;7410443;19;19910;-82
2023/04/02 00:19:44;;;;;;;0.90;0.70;;;;;;;9.21;73.29;97517.72;7419283;19;19918;-81
2023/04/02 00:22:19;;;;;;;0.70;0.70;;;;;;;9.20;73.52;97517.91;7421753;19;19919;-80
2023/04/02 00:24:49;;;;;;;1.08;0.98;;;;;;;9.21;73.48;97527.47;7410016;19;19918;-80
2023/04/02 00:27:16;;;;;;;0.50;0.50;;;;;;;9.24;73.80;97527.13;7418395;19;19919;-80
2023/04/02 00:29:48;;;;;;;0.95;0.95;;;;;;;9.31;73.79;97536.03;7416704;19;19915;-80
2023/04/02 00:32:20;;;;;;;1.05;0.98;;;;;;;9.36;73.76;97528.44;7418219;19;19943;-80
2023/04/02 00:34:47;;;;;;;0.80;0.70;;;;;;;9.39;73.60;97527.28;7406831;19;19918;-81
2023/04/02 00:37:26;;;;;;;1.98;1.10;;;;;;;9.38;73.63;97533.56;7416871;19;19936;-82
2023/04/02 00:40:08;;;;;;;0.98;0.60;;;;;;;9.21;73.86;97546.75;7411840;19;19931;-81
2023/04/02 00:42:39;;;;;;;0.63;0.47;;;;;;;9.35;73.83;97541.81;7393864;19;19918;-82
2023/04/02 00:45:17;;;;;;;0.73;0.73;;;;;;;9.38;73.85;97542.28;7381073;19;19918;-83
2023/04/02 00:47:44;;;;;;;0.80;0.70;;;;;;;9.34;74.06;97540.16;7386646;19;20745;-82
2023/04/02 00:50:12;;;;;;;0.80;0.68;;;;;;;9.34;73.80;97540.97;7382664;19;19922;-82
2023/04/02 00:52:39;;;;;;;0.73;0.73;;;;;;;9.30;73.77;97542.31;7384204;19;19922;-82
2023/04/02 00:55:35;;;;;;;0.63;0.52;;;;;;;9.28;73.80;97539.00;7386867;19;20546;-81
2023/04/02 00:58:03;;;;;;;0.80;0.80;;;;;;;9.23;73.81;97541.31;7385405;19;19914;-82
2023/04/02 01:00:35;;;;;;;0.93;0.85;;;;;;;9.25;74.25;97546.44;7390654;19;19922;-82
2023/04/02 01:03:11;;;;;;;0.60;0.60;;;;;;;9.25;74.29;97543.81;7387155;19;19915;-83
2023/04/02 01:05:38;;;;;;;;;;;;;;;9.14;74.21;97553.72;7391647;19;19918;-82
2023/04/02 01:08:23;;;;;;;0.90;0.77;;;;;;;9.20;74.27;97552.22;7377894;19;19951;-83
2023/04/02 01:11:09;;;;;;;0.73;0.70;;;;;;;9.28;74.12;97548.75;7384708;19;19930;-82
2023/04/02 01:13:40;;;;;;;0.77;0.77;;;;;;;9.13;73.71;97553.88;7389944;19;19919;-82
2023/04/02 01:16:17;;;;;;;2.28;0.73;;;;;;;9.13;73.92;97556.50;7383303;19;19918;-82
2023/04/02 01:19:06;;;;;;;0.70;0.55;;;;;;;9.25;73.68;97557.81;7381224;19;19915;-79
2023/04/02 01:21:52;;;;;;;1.05;1.05;;;;;;;9.19;73.73;97563.78;7391465;19;19931;-83
2023/04/02 01:24:20;;;;;;;0.93;0.82;;;;;;;9.25;74.18;97568.38;7386730;19;19926;-82
2023/04/02 01:26:57;;;;;;;0.75;0.73;;;;;;;9.27;74.09;97558.50;7385361;19;19935;-81
2023/04/02 01:29:24;;;;;;;0.93;0.63;;;;;;;9.26;73.88;97564.75;7388560;19;19926;-83
2023/04/02 01:31:52;;;;;;;2.08;1.98;;;;;;;9.20;74.07;97560.13;7384410;19;20347;-82
2023/04/02 01:34:22;;;;;;;0.98;0.98;;;;;;;9.20;74.42;97560.97;7380701;19;19951;-81
2023/04/02 01:37:04;;;;;;;3.25;1.17;;;;;;;9.16;74.75;97564.09;7382585;19;19919;-82
2023/04/02 01:39:49;;;;;;;0.95;0.95;;;;;;;9.20;74.83;97566.25;7389522;19;19922;-83
2023/04/02 01:42:45;;;;;;;1.05;0.82;;;;;;;9.10;74.91;97565.59;7390264;19;19922;-83
2023/04/02 01:45:18;;;;;;;1.92;1.83;;;;;;;9.19;75.10;97574.34;7384654;19;20336;-81
2023/04/02 01:47:45;;;;;;;0.93;0.93;;;;;;;9.22;75.41;97579.28;7386068;19;19947;-82
2023/04/02 01:50:25;;;;;;;1.05;1.05;;;;;;;9.20;75.00;97576.78;7386333;19;19922;-82
2023/04/02 01:52:54;;;;;;;2.20;2.10;;;;;;;9.25;75.41;97586.84;7380002;19;20225;-82
2023/04/02 01:55:33;;;;;;;1.10;1.10;;;;;;;9.25;75.91;97580.75;7385884;19;19926;-81
2023/04/02 01:58:02;;;;;;;0.70;0.70;;;;;;;9.25;76.33;97583.41;7380757;19;19935;-81
2023/04/02 02:00:29;;;;;;;2.15;2.05;;;;;;;9.22;76.58;97584.56;7385969;19;20845;-81
2023/04/02 02:02:58;;;;;;;1.17;1.08;;;;;;;9.18;76.49;97581.41;7384161;19;19919;-81
2023/04/02 02:05:25;;;;;;;0.85;0.75;;;;;;;9.20;76.53;97587.34;7387891;19;19926;-82
2023/04/02 02:07:55;;;;;;;0.82;0.82;;;;;;;9.19;76.96;97588.34;7379486;19;19922;-81
2023/04/02 02:10:34;;;;;;;1.23;1.13;;;;;;;9.19;76.68;97591.00;7388733;19;20400;-83
2023/04/02 02:13:01;;;;;;;1.13;0.85;;;;;;;9.17;76.94;97587.69;7382491;19;19962;-82
2023/04/02 02:15:31;;;;;;;2.10;2.00;;;;;;;9.20;76.99;97592.63;7383654;19;20330;-81
2023/04/02 02:18:02;;;;;;;0.93;0.93;;;;;;;9.18;76.95;97591.97;7383753;19;19922;-81
2023/04/02 02:20:30;;;;;;;0.88;0.88;;;;;;;9.22;77.00;97595.13;7386365;19;20003;-82
2023/04/02 02:22:57;;;;;;;0.57;0.57;;;;;;;9.22;76.80;97598.56;7378349;19;19911;-81
2023/04/02 02:25:26;;;;;;;2.08;1.92;;;;;;;9.25;77.04;97599.25;7384310;19;20309;-81
2023/04/02 02:28:14;;;;;;;2.15;0.70;;;;;;;9.25;77.21;97594.78;7383124;19;19926;-82
2023/04/02 02:31:04;;;;;;;0.95;0.82;;;;;;;9.27;77.30;97603.34;7383161;19;19925;-83
2023/04/02 02:33:51;;;;;;;0.77;0.77;;;;;;;9.30;77.20;97602.19;7384730;19;19926;-81
2023/04/02 02:36:34;;;;;;;0.60;0.60;;;;;;;9.27;77.21;97606.00;7385191;19;19926;-81
2023/04/02 02:39:15;;;;;;;0.73;0.45;;;;;;;9.26;77.20;97608.78;7383853;19;20008;-82
2023/04/02 02:41:50;;;;;;;1.35;0.63;;;;;;;9.25;77.05;97613.25;7383199;19;19922;-82
2023/04/02 02:44:20;;;;;;;1.50;0.93;;;;;;;9.27;77.12;97616.56;7380411;19;19926;-81
2023/04/02 02:46:51;;;;;;;0.90;0.90;;;;;;;9.23;76.80;97613.41;7381525;19;20575;-82
2023/04/02 02:49:19;;;;;;;;;;;;;;;9.20;76.63;97615.56;7384883;19;19919;-81
2023/04/02 02:52:16;;;;;;;1.02;0.88;;;;;;;9.19;76.56;97616.56;7377349;19;19915;-82
2023/04/02 02:54:54;;;;;;;0.75;0.63;;;;;;;9.19;76.87;97609.47;7379151;19;20349;-82
2023/04/02 02:57:30;;;;;;;0.60;0.60;;;;;;;9.23;77.08;97615.22;7386460;19;19914;-82
2023/04/02 02:59:58;;;;;;;1.30;0.75;;;;;;;9.25;77.21;97615.88;7382204;19;19922;-82
2023/04/02 03:02:27;;;;;;;0.73;0.65;;;;;;;9.26;77.04;97617.53;7383088;19;19926;-82
2023/04/02 03:04:55;;;;;;;1.10;0.95;;;;;;;9.30;77.02;97626.78;7377558;19;19933;-81
2023/04/02 03:07:25;;;;;;;1.02;0.90;;;;;;;9.32;77.10;97623.94;7380311;19;19933;-82
2023/04/02 03:10:05;;;;;;;1.50;1.48;;;;;;;9.34;77.14;97630.72;7380141;19;20529;-82
2023/04/02 03:12:40;;;;;;;0.50;0.50;;;;;;;9.33;76.70;97628.25;7386737;19;20412;-83
2023/04/02 03:15:29;;;;;;;0.68;0.68;;;;;;;9.28;76.66;97628.75;7377606;19;19976;-81
2023/04/02 03:18:01;;;;;;;1.15;0.93;;;;;;;9.23;76.24;97633.69;7380574;19;19926;-82
2023/04/02 03:20:46;;;;;;;1.42;1.42;;;;;;;9.09;75.47;97637.81;7385438;19;19926;-82
2023/04/02 03:23:23;;;;;;;1.35;0.68;;;;;;;9.02;75.68;97637.66;7378466;19;19932;-81
2023/04/02 03:25:57;;;;;;;0.98;0.88;;;;;;;9.09;75.85;97648.38;7377398;19;19947;-81
2023/04/02 03:28:28;;;;;;;0.75;0.55;;;;;;;9.12;76.17;97642.78;7386314;19;19915;-81
2023/04/02 03:31:13;;;;;;;0.73;0.65;;;;;;;8.97;75.55;97641.78;7380446;19;19938;-82
2023/04/02 03:33:44;;;;;;;0.50;0.50;;;;;;;9.07;75.32;97650.34;7383832;19;19926;-82
2023/04/02 03:36:21;;;;;;;0.88;0.88;;;;;;;9.10;75.24;97655.31;7381863;19;20387;-81
2023/04/02 03:38:52;;;;;;;1.95;0.80;;;;;;;9.14;75.72;97651.34;7382764;19;19925;-82
2023/04/02 03:41:30;;;;;;;0.88;0.88;;;;;;;9.00;75.23;97660.75;7382405;19;19922;-81
2023/04/02 03:44:00;;;;;;;0.73;0.73;;;;;;;9.16;75.13;97657.31;7383687;19;19918;-82
2023/04/02 03:46:32;;;;;;;1.08;1.08;;;;;;;9.00;75.22;97662.53;7388251;19;20587;-81
2023/04/02 03:49:05;;;;;;;0.82;0.82;;;;;;;9.07;75.17;97660.91;7383838;19;19933;-81
2023/04/02 03:51:43;;;;;;;0.95;0.95;;;;;;;9.09;75.47;97661.56;7388364;19;19919;-82
2023/04/02 03:54:12;;;;;;;1.70;0.70;;;;;;;9.16;75.32;97662.59;7388111;19;19946;-81
2023/04/02 03:56:40;;;;;;;0.95;0.93;;;;;;;9.14;75.55;97669.81;7391244;19;19927;-82
2023/04/02 03:59:44;;;;;;;1.40;0.77;;;;;;;9.16;75.50;97670.50;7384701;19;19929;-81
2023/04/02 04:02:39;;;;;;;1.05;1.05;;;;;;;9.16;75.73;97670.50;7384131;19;19914;-82
2023/04/02 04:05:18;;;;;;;3.05;2.85;;;;;;;9.14;75.38;97667.19;7379775;19;20245;-81
2023/04/02 04:07:45;;;;;;;1.15;1.00;;;;;;;9.14;75.85;97676.94;7391540;19;19923;-81
2023/04/02 04:10:17;;;;;;;1.75;0.55;;;;;;;9.20;76.16;97678.91;7384143;19;19939;-82
2023/04/02 04:12:46;;;;;;;0.98;0.98;;;;;;;9.26;76.18;97683.50;7391144;19;19964;-81
2023/04/02 04:15:30;;;;;;;0.90;0.90;;;;;;;9.19;76.54;97690.47;7382914;19;19919;-81
2023/04/02 04:18:04;;;;;;;0.82;0.82;;;;;;;9.24;76.28;97685.47;7385530;19;19914;-82
2023/04/02 04:20:46;;;;;;;1.20;0.80;;;;;;;9.22;75.90;97695.41;7390440;19;19938;-82
2023/04/02 04:23:28;;;;;;;0.65;0.52;;;;;;;9.20;76.20;97692.91;7381409;19;19919;-82
2023/04/02 04:26:19;;;;;;;1.10;0.90;;;;;;;9.28;76.16;97691.28;7386874;19;19922;-82
2023/04/02 04:29:12;;;;;;;0.85;0.70;;;;;;;9.28;76.54;97707.13;7391026;19;19986;-82
2023/04/02 04:31:45;;;;;;;0.73;0.73;;;;;;;9.32;76.74;97711.06;7386127;19;20014;-81
2023/04/02 04:34:19;;;;;;;1.20;0.75;;;;;;;9.34;76.83;97706.44;7381828;19;20001;-82
2023/04/02 04:37:01;;;;;;;0.80;0.70;;;;;;;9.33;77.00;97715.38;7388648;19;19930;-81
2023/04/02 04:40:05;;;;;;;1.08;0.98;;;;;;;9.34;76.83;97719.66;7388949;19;20518;-82
2023/04/02 04:42:35;;;;;;;0.40;0.40;;;;;;;9.34;76.45;97722.28;7387243;19;20004;-82
2023/04/02 04:45:42;;;;;;;2.15;2.03;;;;;;;9.00;76.08;97723.22;7377396;19;20606;-81
2023/04/02 04:48:25;;;;;;;0.60;0.60;;;;;;;8.93;75.53;97733.63;7380146;19;24188;-82
2023/04/02 04:51:00;;;;;;;0.73;0.73;;;;;;;9.00;75.65;97741.69;7385809;19;20021;-80
2023/04/02 04:53:29;;;;;;;0.77;0.77;;;;;;;9.01;75.92;97731.00;7385773;19;19918;-81
2023/04/02 04:56:02;;;;;;;0.60;0.60;;;;;;;9.10;75.48;97734.47;7382967;19;20013;-82
2023/04/02 04:59:12;;;;;;;0.98;0.98;;;;;;;9.19;75.87;97736.16;7388540;19;19930;-81
2023/04/02 05:01:48;;;;;;;0.88;0.82;;;;;;;9.26;76.08;97746.84;7390893;19;20698;-82
2023/04/02 05:04:27;;;;;;;0.60;0.60;;;;;;;9.30;75.91;97750.03;7381812;19;19927;-82
2023/04/02 05:07:09;;;;;;;1.45;1.35;;;;;;;9.25;76.13;97747.03;7381208;19;19914;-81
2023/04/02 05:09:40;;;;;;;0.77;0.75;;;;;;;9.29;75.86;97748.34;7389143;19;19919;-82
2023/04/02 05:12:30;;;;;;;1.00;0.93;;;;;;;9.29;75.83;97753.63;7385274;19;19935;-81
2023/04/02 05:15:10;;;;;;;0.75;0.75;;;;;;;9.19;75.36;97753.81;7381986;19;19929;-81
2023/04/02 05:18:08;;;;;;;3.58;0.47;;;;;;;9.23;75.41;97755.94;7385547;19;19978;-82
2023/04/02 05:20:42;;;;;;;1.27;0.43;;;;;;;9.33;75.79;97768.16;7385533;19;19960;-82
2023/04/02 05:23:26;;;;;;;0.70;0.70;;;;;;;9.33;76.09;97765.53;7376280;19;19915;-81
2023/04/02 05:26:29;;;;;;;0.70;0.70;;;;;;;9.34;75.97;97773.25;7385638;19;19933;-82
2023/04/02 05:28:59;;;;;;;0.82;0.82;;;;;;;9.28;75.62;97770.47;7383560;19;19922;-80
2023/04/02 05:31:36;;;;;;;2.20;0.85;;;;;;;9.35;75.51;97774.94;7386198;19;19927;-81
2023/04/02 05:34:03;;;;;;;0.80;0.80;;;;;;;9.34;75.65;97781.19;7381781;19;19931;-82
2023/04/02 05:36:31;;;;;;;1.50;1.40;;;;;;;9.31;75.22;97784.16;7382150;19;19929;-81
2023/04/02 05:38:59;;;;;;;0.73;0.73;;;;;;;9.34;75.72;97783.81;7377472;19;20654;-82
2023/04/02 05:41:42;;;;;;;1.05;1.05;;;;;;;9.40;75.34;97782.34;7387478;19;20013;-82
2023/04/02 05:44:23;;;;;;;1.40;0.65;;;;;;;9.45;75.27;97786.19;7383567;19;19958;-81
2023/04/02 05:46:54;;;;;;;4.10;0.82;;;;;;;9.50;75.19;97790.13;7386696;19;19929;-81
2023/04/02 05:49:32;;;;;;;0.82;0.82;;;;;;;9.52;75.39;97786.34;7388885;19;19950;-82
2023/04/02 05:52:01;;;;;;;1.92;1.80;;;;;;;9.56;75.71;97794.78;7377226;19;20285;-81
2023/04/02 05:54:32;;;;;;;0.82;0.82;;;;;;;9.61;75.53;97798.56;7381616;19;19922;-81
2023/04/02 05:57:03;;;;;;;0.60;0.52;;;;;;;9.58;75.53;97801.50;7382814;19;19926;-82
2023/04/02 05:59:37;;;;;;;0.82;0.80;;;;;;;9.58;75.40;97798.88;7382601;19;19914;-82
2023/04/02 06:02:13;;;;;;;0.47;0.45;;;;;;;9.56;75.90;97808.78;7378730;19;19923;-83
2023/04/02 06:04:46;;;;;;;1.63;1.63;;;;;;;9.65;75.63;97807.81;7379200;19;19926;-82
2023/04/02 06:07:27;;;;;;;0.60;0.60;;;;;;;9.66;76.18;97814.75;7375721;19;19922;-80
2023/04/02 06:09:59;;;;;;;1.75;0.75;;;;;;;9.57;76.24;97815.72;7390675;19;19919;-80
2023/04/02 06:12:40;;;;;;;0.75;0.73;;;;;;;9.63;76.16;97820.34;7395720;19;20388;-80
2023/04/02 06:15:15;;;;;;;0.52;0.52;;;;;;;9.73;76.23;97824.66;7387541;19;19970;-81
2023/04/02 06:17:49;;;;;;;0.63;0.63;;;;;;;9.72;75.76;97821.19;7387053;19;19937;-83
2023/04/02 06:20:18;;;;;;;1.42;1.38;;;;;;;9.81;75.99;97832.59;7385766;19;19926;-82
2023/04/02 06:22:58;;;;;;;1.33;1.17;;;;;;;9.71;74.99;97830.09;7386915;19;19919;-81
2023/04/02 06:25:30;;;;;;;0.95;0.95;;;;;;;9.75;75.33;97841.16;7388385;19;19943;-82
2023/04/02 06:27:58;;;;;;;0.70;0.70;;;;;;;9.85;75.28;97837.38;7389739;19;20392;-82
2023/04/02 06:30:34;;;;;;;1.73;0.82;;;;;;;9.90;74.82;97844.81;7389595;19;19930;-82
2023/04/02 06:33:03;;;;;;;0.63;0.63;;;;;;;10.05;75.23;97848.44;7380757;19;19918;-82
2023/04/02 06:35:34;;;;;;;0.60;0.55;;;;;;;10.15;75.24;97850.94;7384621;19;19922;-82
2023/04/02 06:38:05;;;;;;;1.50;1.50;;;;;;;10.25;74.77;97851.59;7382588;19;20539;-81
2023/04/02 06:40:47;;;;;;;1.98;0.50;;;;;;;10.34;74.69;97857.72;7385206;19;19930;-81
2023/04/02 06:43:34;;;;;;;1.73;0.77;;;;;;;10.43;74.36;97863.84;7380756;19;19922;-81
2023/04/02 06:46:36;;;;;;;0.82;0.60;;;;;;;10.46;73.67;97869.59;7378935;19;19923;-80
2023/04/02 06:49:33;;;;;;;1.77;1.13;;;;;;;10.50;73.96;97878.03;7380033;19;19927;-81
2023/04/02 06:52:05;;;;;;;1.00;0.85;;;;;;;10.60;74.14;97877.84;7376625;19;19929;-80
2023/04/02 06:54:31;;;;;;;1.10;0.80;;;;;;;10.63;73.84;97882.81;7382765;19;19951;-80
2023/04/02 06:57:04;;;;;;;1.35;1.23;;;;;;;10.69;73.83;97884.75;7381061;19;19950;-80
2023/04/02 06:59:36;;;;;;;1.70;1.10;;;;;;;10.76;73.54;97888.41;7383244;19;20304;-82
2023/04/02 07:02:22;;;;;;;1.45;1.35;;;;;;;10.82;73.65;97894.81;7381414;19;19932;-80
2023/04/02 07:04:49;;;;;;;1.45;1.35;;;;;;;10.86;73.56;97896.16;7378246;19;19933;-81
2023/04/02 07:07:17;;;;;;;1.80;1.40;;;;;;;10.88;72.91;97902.94;7373471;19;20408;-79
2023/04/02 07:09:46;;;;;;;1.27;0.80;;;;;;;10.85;72.55;97903.28;7383087;19;19919;-80
2023/04/02 07:12:14;;;;;;;1.73;1.63;;;;;;;10.94;72.65;97906.72;7375942;19;19922;-81
2023/04/02 07:14:46;;;;;;;1.55;0.95;;;;;;;11.00;72.58;97911.31;7381224;19;19934;-83
2023/04/02 07:17:16;;;;;;;1.50;1.40;;;;;;;11.09;72.41;97907.69;7384475;19;19932;-82
2023/04/02 07:19:48;;;;;;;1.73;1.35;;;;;;;11.09;72.28;97912.97;7387499;19;19931;-81
2023/04/02 07:22:18;;;;;;;2.13;1.20;;;;;;;11.15;71.76;97919.41;7381348;19;20374;-80
2023/04/02 07:24:49;;;;;;;1.48;0.77;;;;;;;11.21;71.64;97924.00;7386342;19;19918;-81
2023/04/02 07:27:16;;;;;;;1.55;0.77;;;;;;;11.17;71.61;97926.19;7388202;19;19935;-80
2023/04/02 07:29:43;;;;;;;2.35;1.33;;;;;;;11.22;71.41;97923.03;7388092;19;19956;-80
2023/04/02 07:32:13;;;;;;;1.33;1.13;;;;;;;11.20;70.74;97931.13;7384856;19;20424;-81
2023/04/02 07:34:40;;;;;;;1.73;1.15;;;;;;;11.26;70.87;97940.22;7391201;19;19954;-81
2023/04/02 07:37:10;;;;;;;1.38;0.80;;;;;;;11.25;70.23;97941.22;7383815;19;19925;-81
2023/04/02 07:39:37;;;;;;;1.10;1.00;;;;;;;11.24;70.42;97949.31;7385916;19;19914;-81
2023/04/02 07:42:06;;;;;;;1.30;0.90;;;;;;;11.30;70.67;97949.47;7383963;19;19968;-81
2023/04/02 07:44:33;;;;;;;3.20;1.10;;;;;;;11.28;70.52;97950.63;7379884;19;19933;-81
2023/04/02 07:47:00;;;;;;;0.80;0.80;;;;;;;11.35;70.68;97954.28;7392939;19;20613;-82
2023/04/02 07:49:27;;;;;;;1.20;0.90;;;;;;;11.31;70.59;97948.47;7388584;19;20007;-81
2023/04/02 07:51:54;;;;;;;1.35;1.25;;;;;;;11.13;70.40;97955.81;7385531;19;19919;-81
2023/04/02 07:54:21;;;;;;;1.60;0.93;;;;;;;11.24;70.37;97960.72;7381966;19;19965;-80
2023/04/02 07:56:48;;;;;;;2.22;2.13;;;;;;;11.26;71.03;97971.97;7386704;19;20238;-80
2023/04/02 07:59:15;;;;;;;1.55;1.15;;;;;;;11.33;70.53;97970.31;7376595;19;19923;-81
2023/04/02 08:01:44;;;;;;;1.10;0.88;;;;;;;11.41;70.08;97980.88;7380988;19;19939;-81
2023/04/02 08:04:20;;;;;;;0.95;0.70;;;;;;;11.41;70.34;97983.53;7378145;19;19914;-81
2023/04/02 08:06:47;;;;;;;1.15;1.05;;;;;;;11.45;70.16;97988.47;7381690;19;19910;-80
2023/04/02 08:09:15;;;;;;;1.38;1.27;;;;;;;11.49;70.28;97987.16;7386632;19;19930;-81
2023/04/02 08:11:42;;;;;;;1.77;1.45;;;;;;;11.56;69.63;97990.78;7388893;19;19921;-81
2023/04/02 08:14:09;;;;;;;1.75;1.20;;;;;;;11.54;69.24;97990.13;7377094;19;19970;-82
2023/04/02 08:16:43;;;;;;;1.40;1.17;;;;;;;11.59;69.36;97993.91;7381675;19;19918;-82
2023/04/02 08:19:10;;;;;;;1.05;0.95;;;;;;;11.39;69.49;97993.47;7383462;19;19951;-81
2023/04/02 08:21:37;;;;;;;1.35;0.80;;;;;;;11.18;69.93;98006.44;7387946;19;19918;-82
2023/04/02 08:24:04;;;;;;;1.45;1.25;;;;;;;11.26;69.78;98002.94;7383010;19;19929;-82
2023/04/02 08:26:30;;;;;;;2.28;1.85;;;;;;;11.32;70.39;98008.41;7385478;19;19922;-81
2023/04/02 08:28:57;;;;;;;1.77;1.55;;;;;;;11.31;70.00;98006.72;7385304;19;19918;-81
2023/04/02 08:31:24;;;;;;;0.93;0.82;;;;;;;11.31;70.00;98011.22;7383977;19;20020;-82
2023/04/02 08:33:52;;;;;;;2.20;1.25;;;;;;;11.33;69.46;98015.34;7384714;19;19927;-82
2023/04/02 08:36:25;;;;;;;1.73;1.15;;;;;;;11.23;69.34;98021.81;7382884;19;19948;-83
2023/04/02 08:38:55;;;;;;;1.42;1.10;;;;;;;10.92;70.34;98020.69;7388482;19;20599;-81
2023/04/02 08:41:27;;;;;;;1.23;1.08;;;;;;;10.98;70.61;98027.97;7387219;19;19914;-81
2023/04/02 08:44:16;;;;;;;2.67;1.50;;;;;;;11.12;71.17;98029.09;7388396;19;19942;-81
2023/04/02 08:46:49;;;;;;;1.48;1.38;;;;;;;11.17;70.57;98034.72;7386920;19;19918;-82
2023/04/02 08:49:21;;;;;;;1.63;1.52;;;;;;;11.21;70.78;98035.22;7378987;19;19930;-82
2023/04/02 08:51:48;;;;;;;2.22;1.15;;;;;;;11.37;70.43;98031.72;7383755;19;19930;-82
2023/04/02 08:54:26;;;;;;;2.30;1.63;;;;;;;11.43;70.41;98039.00;7371089;19;19922;-82
2023/04/02 08:57:06;;;;;;;2.25;1.40;;;;;;;11.58;70.71;98044.41;7375753;19;20640;-82
2023/04/02 08:59:37;;;;;;;1.65;1.10;;;;;;;11.71;70.26;98050.00;7382887;19;19918;-82
2023/04/02 09:02:06;;;;;;;1.15;1.10;;;;;;;11.78;70.27;98055.44;7385796;19;20441;-82
2023/04/02 09:04:33;;;;;;;2.17;2.08;;;;;;;11.85;70.11;98054.59;7384390;19;20281;-81
2023/04/02 09:07:00;;;;;;;2.30;2.20;;;;;;;11.77;70.03;98059.06;7385085;19;20266;-82
2023/04/02 09:09:27;;;;;;;1.95;1.77;;;;;;;11.27;71.47;98058.41;7380801;19;19918;-81
2023/04/02 09:11:59;;;;;;;0.75;0.73;;;;;;;11.49;71.05;98069.28;7384613;19;19926;-82
2023/04/02 09:14:40;;;;;;;0.93;0.75;;;;;;;11.74;71.58;98070.88;7382547;19;21181;-81
2023/04/02 09:17:18;;;;;;;3.08;1.38;;;;;;;11.98;71.51;98066.47;7385650;19;19926;-81
2023/04/02 09:20:04;;;;;;;1.00;0.90;;;;;;;12.34;69.40;98073.94;7385133;19;20502;-82
2023/04/02 09:22:32;;;;;;;1.90;0.93;;;;;;;12.61;67.93;98081.44;7381171;19;19998;-81
2023/04/02 09:25:01;;;;;;;1.70;1.60;;;;;;;12.94;67.72;98070.56;7382456;19;19914;-81
2023/04/02 09:27:33;;;;;;;0.95;0.77;;;;;;;12.99;66.85;98075.34;7380659;19;19953;-82
2023/04/02 09:30:29;;;;;;;2.03;1.00;;;;;;;13.21;65.67;98071.81;7390415;19;20029;-82
2023/04/02 09:33:00;;;;;;;0.65;0.65;;;;;;;13.02;63.30;98078.47;7385840;19;19914;-82
2023/04/02 09:35:31;;;;;;;1.20;0.95;;;;;;;13.35;64.35;98086.19;7382696;19;19947;-81
2023/04/02 09:38:15;;;;;;;2.20;0.77;;;;;;;13.04;65.03;98084.44;7382787;19;19918;-81
2023/04/02 09:40:51;;;;;;;1.80;1.48;;;;;;;13.00;64.89;98087.59;7385865;19;20270;-82
2023/04/02 09:43:23;;;;;;;1.15;0.80;;;;;;;13.21;64.74;98097.56;7376449;19;19915;-82
2023/04/02 09:46:01;;;;;;;1.35;1.05;;;;;;;13.42;64.60;98100.38;7385981;19;19922;-82
2023/04/02 09:48:38;;;;;;;1.92;1.48;;;;;;;13.51;64.89;98101.16;7388070;19;19932;-82
2023/04/02 09:51:06;;;;;;;1.00;1.00;;;;;;;13.42;64.25;98115.50;7386948;19;19918;-82
2023/04/02 09:53:35;;;;;;;1.95;1.10;;;;;;;13.65;64.68;98105.66;7374252;19;20341;-82
2023/04/02 09:56:17;;;;;;;1.23;0.93;;;;;;;13.63;63.88;98101.53;7386830;19;19929;-81
2023/04/02 09:58:44;;;;;;;;;;;;;;;13.91;64.19;98113.19;7386541;19;19919;-81
2023/04/02 10:01:27;;;;;;;1.83;1.67;;;;;;;13.85;62.81;98119.25;7379202;19;19922;-82
2023/04/02 10:03:54;;;;;;;;;;;;;;;13.78;63.46;98121.81;7392811;19;19925;-81
2023/04/02 10:06:21;;;;;;;1.23;0.55;;;;;;;13.78;61.73;98118.31;7378698;19;19974;-81
2023/04/02 10:08:47;;;;;;;0.70;0.50;;;;;;;14.06;63.17;98126.50;7383910;19;20387;-82
2023/04/02 10:11:21;;;;;;;0.77;0.65;;;;;;;14.26;61.73;98121.41;7390948;19;19929;-82
2023/04/02 10:13:56;;;;;;;0.40;0.30;;;;;;;13.88;61.35;98128.69;7399993;19;19914;-82
2023/04/02 10:16:55;;;;;;;0.93;0.93;;;;;;;13.43;62.27;98131.28;7382145;19;19922;-81
2023/04/02 10:19:33;;;;;;;1.40;1.30;;;;;;;13.90;62.36;98134.63;7381010;19;20330;-81
2023/04/02 10:22:04;;;;;;;0.82;0.82;;;;;;;14.14;61.49;98134.38;7386256;19;19943;-82
2023/04/02 10:24:31;;;;;;;0.85;0.85;;;;;;;14.22;61.21;98133.47;7384230;19;19915;-82
2023/04/02 10:27:27;;;;;;;0.50;0.50;;;;;;;14.16;60.96;98129.69;7387502;19;19951;-82
2023/04/02 10:30:06;;;;;;;1.00;0.65;;;;;;;14.33;60.47;98137.50;7395455;19;19990;-81
2023/04/02 10:32:43;;;;;;;1.38;0.60;;;;;;;14.24;60.84;98131.41;7387546;19;19911;-81
2023/04/02 10:35:18;;;;;;;1.65;0.45;;;;;;;14.13;60.31;98132.72;7378185;19;20313;-82
2023/04/02 10:37:48;;;;;;;0.80;0.50;;;;;;;14.03;61.02;98138.34;7385819;19;19930;-81
2023/04/02 10:40:39;;;;;;;0.55;0.52;;;;;;;14.20;60.34;98143.47;7382807;19;19914;-81
2023/04/02 10:43:20;;;;;;;0.95;0.40;;;;;;;14.30;60.57;98145.81;7384479;19;19938;-82
2023/04/02 10:45:58;;;;;;;0.70;0.65;;;;;;;14.18;60.08;98153.44;7384930;19;19955;-81
2023/04/02 10:48:43;;;;;;;1.08;0.70;;;;;;;14.05;60.22;98148.78;7382113;19;19933;-81
2023/04/02 10:51:28;;;;;;;0.60;0.60;;;;;;;13.57;62.15;98149.09;7388190;19;19935;-81
2023/04/02 10:54:16;;;;;;;0.60;0.50;;;;;;;13.78;62.42;98158.19;7388941;19;19928;-81
2023/04/02 10:56:43;;;;;;;;;;;;;;;13.69;62.53;98161.94;7392205;19;19926;-83
2023/04/02 10:59:22;;;;;;;0.77;0.45;;;;;;;13.18;62.99;98165.97;7386510;19;19978;-82
2023/04/02 11:01:50;;;;;;;0.80;0.50;;;;;;;13.26;63.84;98164.28;7392015;19;19915;-82
2023/04/02 11:04:30;;;;;;;1.77;1.67;;;;;;;13.22;64.01;98162.97;7382588;19;20226;-81
2023/04/02 11:07:04;;;;;;;0.95;0.95;;;;;;;13.25;62.69;98171.41;7390149;19;19947;-81
2023/04/02 11:09:42;;;;;;;1.25;0.82;;;;;;;13.00;63.67;98170.75;7391231;19;19919;-81
2023/04/02 11:12:40;;;;;;;0.60;0.60;;;;;;;13.12;63.18;98172.00;7389476;19;20270;-81
2023/04/02 11:15:18;;;;;;;1.58;1.48;;;;;;;13.03;63.79;98173.06;7386349;19;20256;-81
2023/04/02 11:17:45;;;;;;;0.38;0.38;;;;;;;13.02;63.76;98187.34;7397457;19;19942;-82
2023/04/02 11:20:42;;;;;;;0.30;0.22;;;;;;;13.09;63.78;98182.16;7391101;19;19914;-81
2023/04/02 11:23:11;;;;;;;0.45;0.40;;;;;;;13.11;63.80;98181.00;7385922;19;19959;-82
2023/04/02 11:25:40;;;;;;;0.70;0.55;;;;;;;12.92;64.20;98179.59;7389623;19;19918;-81
2023/04/02 11:28:27;;;;;;;0.63;0.63;;;;;;;13.03;62.82;98182.84;7389146;19;19935;-81
2023/04/02 11:30:55;;;;;;;1.30;0.57;;;;;;;12.95;63.56;98184.56;7390046;19;19926;-83
2023/04/02 11:33:34;;;;;;;0.50;0.32;;;;;;;12.84;63.10;98192.09;7384738;19;19947;-81
2023/04/02 11:36:44;;;;;;;1.33;1.23;;;;;;;12.89;63.34;98195.06;7388104;19;19935;-81
2023/04/02 11:39:11;;;;;;;0.70;0.70;;;;;;;13.14;62.84;98201.06;7388620;19;19946;-81
2023/04/02 11:42:03;;;;;;;0.65;0.60;;;;;;;13.07;63.45;98200.91;7391557;19;19926;-82
2023/04/02 11:44:30;;;;;;;0.68;0.50;;;;;;;12.98;62.82;98202.00;7384051;19;19926;-82
2023/04/02 11:47:16;;;;;;;0.90;0.75;;;;;;;12.96;62.85;98204.00;7388975;19;19943;-81
2023/04/02 11:50:04;;;;;;;0.90;0.50;;;;;;;13.14;62.77;98206.38;7394705;19;19930;-81
2023/04/02 11:52:35;;;;;;;0.77;0.52;;;;;;;13.46;61.92;98197.38;7384170;19;19918;-81
2023/04/02 11:55:40;;;;;;;0.50;0.50;;;;;;;13.54;61.14;98204.44;7385179;19;19925;-81
2023/04/02 11:58:25;;;;;;;0.50;0.50;;;;;;;13.65;61.34;98205.84;7388352;19;19918;-82
2023/04/02 12:00:56;;;;;;;0.50;0.50;;;;;;;13.76;60.51;98205.41;7386635;19;19915;-81
2023/04/02 12:03:52;;;;;;;0.50;0.50;;;;;;;13.75;60.99;98214.41;7380955;19;19919;-81
2023/04/02 12:06:32;;;;;;;0.52;0.43;;;;;;;13.82;60.93;98212.66;7377785;19;19914;-81
2023/04/02 12:09:06;;;;;;;1.75;1.65;;;;;;;14.02;61.66;98207.66;7387465;19;20266;-82
2023/04/02 12:11:38;;;;;;;0.85;0.40;;;;;;;14.29;60.68;98214.19;7387075;19;20361;-81
2023/04/02 12:14:44;;;;;;;0.68;0.50;;;;;;;14.17;59.60;98218.31;7384142;19;19951;-80
2023/04/02 12:17:27;;;;;;;0.57;0.57;;;;;;;14.07;58.15;98220.41;7385348;19;19923;-82
2023/04/02 12:19:59;;;;;;;1.05;0.50;;;;;;;14.03;60.18;98217.28;7391772;19;19915;-82